Alvaton, KY

5:42 AM CDT on August 01, 2014 (GMT -0500)
Plano (KKYBOWLI8) Elev 630 ft | 36.87 °N, 86.41 °W | Change Station

Current weather conditions updated 1 second ago

Clear
Clear
59.2 °F
Feels Like 59.2 °F
N
0.0
Wind Variable Wind from North
Gusts 0.0 mph

Today is forecast to be nearly the same temperature as yesterday. Isolated thunderstorms.

Today
High -- | Low -- °F
--% Chance of Precip.
Yesterday
High -- | Low -- °F
Precip. -- in
5:50 AM 7:52 PM
Waxing Crescent, 25% visible
Pressure 30.06 in
Visibility 7.0 miles
Clouds Clear
Dew Point 59 °F
Humidity 100%
Rainfall 0.00 in
Snow Depth Not available.
UV 0 out of 12
Pollen 4.80 out of 12
Air Quality Not available.
Flu Activity Not available.
METAR KBWG 010953Z AUTO 00000KT 7SM CLR 16/14 A3008 RMK AO2 SLP180 T01610144

More Conditions Fewer Conditions

Pressure 30.06 in
Visibility 7.0 miles
Clouds Clear
Dew Point 59 °F
Humidity 100%
Rainfall 0.00 in
Snow Depth Not available.
UV 0 out of 12
Pollen 4.80 out of 12
Air Quality Not available.
Flu Activity Not available.
METAR KBWG 010953Z AUTO 00000KT 7SM CLR 16/14 A3008 RMK AO2 SLP180 T01610144

More Conditions Fewer Conditions

10-Day Weather Forecast

Almanac

Astronomy

Aug. 01, 2014 Rise Set
Actual Time 5:50 AM CDT 7:52 PM CDT
Civil Twilight 5:22 AM CDT 8:20 PM CDT
Nautical Twilight 4:47 AM CDT 8:55 PM CDT
Astronomical Twilight 4:09 AM CDT 9:32 PM CDT
Moon 11:04 AM CDT 10:46 PM CDT
Length of Visible Light 14h 58m
Length of Day
14h 01m
Tomorrow will be 1m 47s shorter.
Waxing Crescent, 25% of the Moon is Illuminated
Today
Waxing Crescent
Aug 3
First Quarter
Aug 10
Full
Aug 17
Last Quarter
Aug 25
New

Today's Extremes

State Highs State Lows

Community

WunderPhotos

Upload Photos

1,739,534 photos uploaded!

Nearby

Snow Depth

Station Depth Elevation
No new snow has been reported.

Earthquake Activity

City Distance Mag. Time & Date
No recent earthquake activity has been reported nearby.
Minimum magnitude displayed is 2.5.

Coastal Water Temperatures

Place Temperature
No Stations Reporting

Nearby Weather Stations

Station Location Temp. Dew Point Humidity Wind Precip. Elev Updated Type
Plano, Bowling Green, KY 59.2 °F 59 °F 100% North  at  0.0 mph 0.00 in / hr 630 ft 5:42 AM CDT Rapid Fire
MIDCREST DR., Bowling Green, KY 64.8 °F 59 °F 81% NNW  at  0.0 mph 0.00 in / hr 686 ft 5:42 AM CDT Rapid Fire
Ridgeview Drive, Bowling Green, KY 62.6 °F 60 °F 90% NNE  at  0.0 mph 0.00 in / hr 650 ft 5:42 AM CDT Rapid Fire
Park City Glasgow Rd., Glasgow, KY 57.6 °F 56 °F 95% NNE  at  0.0 mph 0.00 in / hr 736 ft 5:42 AM CDT Rapid Fire
Al Bedel Road, Auburn, KY 59.9 °F 57 °F 91% SE  at  0.0 mph 0.00 in / hr 650 ft 5:40 AM CDT Normal

Show More Stations Show Fewer Stations